Time;durP1;ratioP1;P1;durP2;ratioP2;P2;SDS_P1;SDS_P2;PMS_P1;PMS_P2;Temp;Humidity;BMP_temperature;BMP_pressure;BME280_temperature;BME280_humidity;BME280_pressure;Samples;Min_cycle;Max_cycle;Signal;HPM_P1;HPM_P2
2022/07/09 00:00:59;;;;;;;;;7.00;7.00;;;;;23.80;42.88;102353.53;5013448;28;45416;-68
2022/07/09 00:03:24;;;;;;;;;8.33;7.33;;;;;23.44;42.77;102298.16;5013218;28;46250;-68
2022/07/09 00:05:49;;;;;;;;;6.67;6.67;;;;;23.79;42.88;102359.91;5013700;28;45672;-69
2022/07/09 00:08:15;;;;;;;;;10.67;9.33;;;;;23.65;42.83;102352.66;5013895;28;45403;-67
2022/07/09 00:10:40;;;;;;;;;12.33;12.33;;;;;23.76;43.02;102359.91;5013360;28;45354;-67
2022/07/09 00:13:05;;;;;;;;;14.00;14.00;;;;;23.70;42.99;102358.13;5013547;28;45478;-68
2022/07/09 00:15:30;;;;;;;;;10.33;8.00;;;;;23.70;42.99;102361.75;5013733;28;45730;-67
2022/07/09 00:17:56;;;;;;;;;8.33;8.33;;;;;23.68;43.13;102362.69;5013493;28;45582;-65
2022/07/09 00:20:21;;;;;;;;;12.67;12.67;;;;;23.66;43.18;102362.69;5013116;28;46276;-68
2022/07/09 00:22:46;;;;;;;;;15.50;12.75;;;;;23.61;43.29;102356.34;5013494;28;45317;-67
2022/07/09 00:25:12;;;;;;;;;13.25;13.00;;;;;23.57;43.67;102348.16;5013864;28;45400;-68
2022/07/09 00:27:37;;;;;;;;;16.25;15.25;;;;;23.49;43.53;102346.31;5014301;28;45557;-67
2022/07/09 00:30:03;;;;;;;;;17.25;16.00;;;;;23.47;43.55;102330.88;5013238;28;45548;-64
2022/07/09 00:32:28;;;;;;;;;20.25;18.25;;;;;23.58;44.35;102356.34;5013195;28;45462;-63
2022/07/09 00:34:54;;;;;;;;;26.50;20.00;;;;;23.53;43.84;102355.44;5013141;28;45328;-65
2022/07/09 00:37:19;;;;;;;;;27.75;25.00;;;;;23.35;43.99;102331.81;5013429;28;45544;-69
2022/07/09 00:39:47;;;;;;;;;27.25;25.25;;;;;23.32;44.12;102320.91;5012873;28;46210;-67
2022/07/09 00:42:12;;;;;;;;;29.50;24.50;;;;;23.33;44.33;102331.81;5013498;28;45382;-68
2022/07/09 00:44:38;;;;;;;;;18.25;14.50;;;;;23.39;44.02;102340.91;5013146;28;45386;-68
2022/07/09 00:47:06;;;;;;;;;20.50;20.00;;;;;23.04;44.17;102290.91;5013687;28;45488;-66
2022/07/09 00:49:34;;;;;;;;;16.67;14.33;;;;;23.22;43.98;102320.00;5013316;28;46506;-67
2022/07/09 00:51:59;;;;;;;;;9.67;9.33;;;;;23.26;44.01;102349.09;5013154;28;45362;-68
2022/07/09 00:54:25;;;;;;;;;10.33;9.33;;;;;23.07;44.37;102320.03;5013223;28;45498;-67
2022/07/09 00:56:53;;;;;;;;;11.67;8.67;;;;;23.19;44.50;102330.91;5013330;28;45553;-69
2022/07/09 00:59:18;;;;;;;;;9.00;7.33;;;;;23.24;44.63;102350.91;5013252;28;45368;-68
2022/07/09 01:01:44;;;;;;;;;7.33;7.33;;;;;23.21;44.67;102342.72;5012874;28;45889;-70
2022/07/09 01:04:09;;;;;;;;;8.00;8.00;;;;;23.19;44.73;102345.44;5013187;28;45514;-70
2022/07/09 01:06:35;;;;;;;;;8.33;8.33;;;;;23.16;44.55;102344.56;5013548;28;45609;-66
2022/07/09 01:09:01;;;;;;;;;7.00;6.00;;;;;23.05;44.87;102327.25;5012859;28;46289;-65
2022/07/09 01:11:27;;;;;;;;;12.33;8.00;;;;;22.82;44.99;102293.66;5013099;28;45478;-66
2022/07/09 01:13:53;;;;;;;;;8.67;6.33;;;;;22.81;44.82;102302.72;5013275;28;45549;-65
2022/07/09 01:16:20;;;;;;;;;7.00;7.00;;;;;23.01;45.14;102329.06;5013651;28;45690;-69
2022/07/09 01:18:47;;;;;;;;;9.00;7.67;;;;;23.01;45.00;102331.81;5012838;28;45416;-66
2022/07/09 01:21:15;;;;;;;;;6.67;6.67;;;;;22.95;45.14;102320.88;5012900;28;45512;-66
2022/07/09 01:23:41;;;;;;;;;6.33;6.33;;;;;22.99;45.05;102331.78;5013079;28;45575;-65
2022/07/09 01:26:07;;;;;;;;;6.00;6.00;;;;;22.85;45.42;102300.00;5013109;28;45630;-66
2022/07/09 01:28:33;;;;;;;;;9.33;7.00;;;;;22.93;45.32;102322.72;5027865;28;47344;-67
2022/07/09 01:30:59;;;;;;;;;7.00;7.00;;;;;22.93;45.44;102322.72;5027985;28;45460;-68
2022/07/09 01:33:25;;;;;;;;;8.33;6.67;;;;;22.92;45.19;102315.47;5015253;28;45300;-69
2022/07/09 01:35:50;;;;;;;;;10.33;7.67;;;;;22.81;45.56;102307.28;5016539;28;45492;-69
2022/07/09 01:38:15;;;;;;;;;8.67;7.33;;;;;22.87;45.41;102311.81;5015893;28;45310;-70
2022/07/09 01:40:41;;;;;;;;;8.33;8.00;;;;;22.73;45.26;102299.09;5015969;28;45486;-64
2022/07/09 01:43:06;;;;;;;;;9.33;7.00;;;;;22.80;45.56;102308.16;5015689;28;45479;-68
2022/07/09 01:45:32;;;;;;;;;8.67;8.67;;;;;22.74;45.34;102300.91;5016342;28;45590;-68
2022/07/09 01:47:57;;;;;;;;;8.00;8.00;;;;;22.81;45.74;102313.63;5016050;28;45452;-66
2022/07/09 01:50:22;;;;;;;;;9.67;7.67;;;;;22.66;45.76;102283.66;5015828;28;45515;-68
2022/07/09 01:52:48;;;;;;;;;7.33;7.33;;;;;22.82;45.94;102306.38;5016197;28;45509;-64
2022/07/09 01:55:14;;;;;;;;;6.00;6.00;;;;;22.81;45.67;102307.28;5016057;28;45462;-68
2022/07/09 01:57:39;;;;;;;;;9.00;8.00;;;;;22.79;46.13;102309.09;5015684;28;46009;-68
2022/07/09 02:00:06;;;;;;;;;8.00;8.00;;;;;22.75;45.71;102297.28;5015952;28;45653;-65
2022/07/09 02:02:31;;;;;;;;;7.00;6.67;;;;;22.62;45.83;102276.41;5015748;28;45477;-63
2022/07/09 02:04:57;;;;;;;;;9.00;7.00;;;;;22.74;45.94;102295.47;5016216;28;45522;-68
2022/07/09 02:07:22;;;;;;;;;8.67;7.00;;;;;22.78;46.00;102291.81;5015501;28;46353;-66
2022/07/09 02:09:49;;;;;;;;;10.33;8.33;;;;;22.78;46.07;102291.81;5015728;28;45409;-63
2022/07/09 02:12:15;;;;;;;;;7.33;6.33;;;;;22.72;46.07;102286.38;5015601;28;45523;-63
2022/07/09 02:14:40;;;;;;;;;7.00;7.00;;;;;22.75;45.99;102294.56;5015746;28;45447;-65
2022/07/09 02:17:06;;;;;;;;;11.33;9.33;;;;;22.74;45.80;102297.28;5015279;28;45374;-62
2022/07/09 02:19:31;;;;;;;;;9.00;9.00;;;;;22.60;46.18;102276.41;5015160;28;45544;-65
2022/07/09 02:21:56;;;;;;;;;8.33;7.67;;;;;22.51;46.00;102248.25;5015545;28;45489;-66
2022/07/09 02:24:22;;;;;;;;;8.67;8.67;;;;;22.70;46.17;102279.09;5015342;28;45451;-65
2022/07/09 02:26:47;;;;;;;;;10.00;8.33;;;;;22.76;46.27;102284.56;5015344;28;46065;-63
2022/07/09 02:29:12;;;;;;;;;7.33;7.33;;;;;22.41;46.41;102220.09;5015315;28;45470;-62
2022/07/09 02:31:37;;;;;;;;;7.00;7.00;;;;;22.70;46.46;102281.81;5015354;28;45588;-63
2022/07/09 02:34:03;;;;;;;;;8.33;7.33;;;;;22.46;46.52;102248.22;5015528;28;45653;-68
2022/07/09 02:36:28;;;;;;;;;6.00;5.33;;;;;22.54;46.53;102270.03;5015064;28;48401;-63
2022/07/09 02:38:53;;;;;;;;;7.00;7.00;;;;;22.61;46.64;102282.75;5015724;28;45532;-64
2022/07/09 02:41:19;;;;;;;;;9.00;9.00;;;;;22.51;46.57;102259.13;5015328;28;45515;-66
2022/07/09 02:43:44;;;;;;;;;6.67;6.67;;;;;22.33;46.71;102241.84;5014978;28;45528;-64
2022/07/09 02:46:10;;;;;;;;;9.33;7.67;;;;;22.52;46.79;102277.28;5015263;28;47117;-64
2022/07/09 02:48:36;;;;;;;;;9.33;8.00;;;;;22.50;46.83;102271.81;5014934;28;45450;-65
2022/07/09 02:51:01;;;;;;;;;9.67;7.00;;;;;22.50;46.87;102277.25;5015598;28;45668;-64
2022/07/09 02:53:27;;;;;;;;;6.67;6.67;;;;;22.37;46.93;102250.94;5015366;28;45388;-65
2022/07/09 02:55:52;;;;;;;;;7.00;7.00;;;;;22.49;46.80;102275.47;5015190;28;45581;-67
2022/07/09 02:58:18;;;;;;;;;11.33;7.33;;;;;22.31;46.91;102246.41;5014780;28;45319;-64
2022/07/09 03:00:43;;;;;;;;;7.33;7.00;;;;;22.48;47.05;102281.81;5015162;28;45566;-67
2022/07/09 03:03:09;;;;;;;;;7.00;7.00;;;;;22.44;47.18;102277.28;5015289;28;45629;-68
2022/07/09 03:05:35;;;;;;;;;7.67;6.00;;;;;22.29;47.21;102250.94;5014792;28;46186;-69
2022/07/09 03:08:00;;;;;;;;;8.00;8.00;;;;;22.39;47.14;102262.72;5014975;28;45292;-68
2022/07/09 03:10:27;;;;;;;;;8.00;8.00;;;;;22.41;47.32;102289.06;5014976;28;45451;-68
2022/07/09 03:12:52;;;;;;;;;7.67;7.67;;;;;22.39;47.05;102289.94;5014954;28;45597;-68
2022/07/09 03:15:17;;;;;;;;;8.00;6.67;;;;;22.22;47.23;102258.16;5014488;28;46576;-66
2022/07/09 03:17:44;;;;;;;;;10.00;9.00;;;;;22.15;47.47;102261.75;5014578;28;45220;-65
2022/07/09 03:20:10;;;;;;;;;9.00;8.67;;;;;22.14;47.56;102270.84;5014482;28;45562;-64
2022/07/09 03:22:36;;;;;;;;;10.00;10.00;;;;;21.87;47.61;102218.13;5014728;28;45422;-66
2022/07/09 03:25:03;;;;;;;;;8.33;8.33;;;;;22.17;48.09;102275.34;5007994;28;45517;-68
2022/07/09 03:27:28;;;;;;;;;8.67;7.33;;;;;22.21;47.84;102291.72;5014546;28;45373;-68
2022/07/09 03:29:53;;;;;;;;;11.00;10.33;;;;;22.21;47.91;102289.00;5014415;28;45425;-67
2022/07/09 03:32:19;;;;;;;;;7.67;7.67;;;;;22.21;47.96;102293.53;5014547;28;45558;-70
2022/07/09 03:34:44;;;;;;;;;9.00;9.00;;;;;22.16;47.78;102288.06;5017114;28;45287;-69
2022/07/09 03:37:10;;;;;;;;;9.00;9.00;;;;;22.18;47.89;102290.81;5015555;28;45427;-68
2022/07/09 03:39:35;;;;;;;;;9.00;6.00;;;;;22.21;47.97;102293.53;5014085;28;45304;-70
2022/07/09 03:42:01;;;;;;;;;11.00;9.33;;;;;22.19;47.87;102298.03;5014560;28;45443;-63
2022/07/09 03:44:26;;;;;;;;;10.33;7.00;;;;;22.14;47.96;102295.34;5014021;28;45383;-68
2022/07/09 03:46:52;;;;;;;;;9.00;7.67;;;;;21.94;48.01;102264.41;5014082;28;45463;-67
2022/07/09 03:49:17;;;;;;;;;7.67;7.67;;;;;22.09;48.17;102288.94;5014730;28;45368;-70
2022/07/09 03:51:43;;;;;;;;;6.67;6.67;;;;;22.03;48.05;102286.22;5014873;28;45450;-70
2022/07/09 03:54:09;;;;;;;;;7.00;7.00;;;;;21.94;47.90;102287.06;5014191;28;46323;-62
2022/07/09 03:56:35;;;;;;;;;6.67;6.67;;;;;21.84;47.95;102274.34;5012768;28;45439;-63
2022/07/09 03:59:00;;;;;;;;;9.00;9.00;;;;;22.03;47.79;102308.00;5014150;28;45534;-67
2022/07/09 04:01:25;;;;;;;;;12.00;12.00;;;;;22.02;47.88;102314.31;5029617;28;45455;-65
2022/07/09 04:03:51;;;;;;;;;11.00;9.33;;;;;21.98;48.18;102309.78;5013569;28;45548;-63
2022/07/09 04:06:16;;;;;;;;;8.33;8.33;;;;;21.65;47.99;102263.38;5013432;28;54709;-65
2022/07/09 04:08:41;;;;;;;;;10.33;10.33;;;;;21.85;48.11;102307.00;5014123;28;45574;-66
2022/07/09 04:11:07;;;;;;;;;8.00;8.00;;;;;21.98;48.08;102323.41;5013939;28;45446;-65
2022/07/09 04:13:32;;;;;;;;;11.67;7.00;;;;;21.79;48.03;102296.09;5013502;28;45396;-69
2022/07/09 04:15:58;;;;;;;;;7.33;7.33;;;;;21.97;48.02;102335.19;5007037;28;45517;-66
2022/07/09 04:18:23;;;;;;;;;10.33;8.33;;;;;21.96;48.24;102322.47;5013654;28;45282;-68
2022/07/09 04:20:48;;;;;;;;;7.33;7.33;;;;;21.93;48.11;102323.38;5014049;28;45506;-66
2022/07/09 04:23:14;;;;;;;;;7.67;7.00;;;;;21.80;48.14;102308.78;5013570;28;45437;-63
2022/07/09 04:25:39;;;;;;;;;11.33;10.67;;;;;21.90;48.04;102321.53;5013317;28;51122;-67
2022/07/09 04:28:05;;;;;;;;;10.33;8.67;;;;;21.93;48.09;102319.72;5013747;28;45516;-64
2022/07/09 04:30:31;;;;;;;;;9.00;8.00;;;;;21.88;48.24;102312.47;5013850;28;45396;-67
2022/07/09 04:32:56;;;;;;;;;10.33;9.00;;;;;21.90;48.27;102316.09;5013454;28;46073;-66
2022/07/09 04:35:22;;;;;;;;;7.00;7.00;;;;;21.83;48.06;102313.34;5013767;28;45323;-63
2022/07/09 04:37:47;;;;;;;;;9.67;9.67;;;;;21.81;48.16;102298.81;5013700;28;45244;-67
2022/07/09 04:40:12;;;;;;;;;11.00;10.00;;;;;21.51;48.17;102251.53;5013656;28;45380;-68
2022/07/09 04:42:37;;;;;;;;;8.00;8.00;;;;;21.90;48.30;102307.94;5013441;28;46469;-69
2022/07/09 04:45:03;;;;;;;;;8.00;8.00;;;;;21.96;48.38;102311.56;5014835;28;50648;-64
2022/07/09 04:47:29;;;;;;;;;9.67;8.33;;;;;21.83;48.27;102295.22;5013329;28;45329;-65
2022/07/09 04:49:54;;;;;;;;;10.33;9.00;;;;;21.89;48.42;102306.13;5013926;28;45635;-63
2022/07/09 04:52:20;;;;;;;;;7.00;6.67;;;;;21.89;48.40;102316.09;5013314;28;49490;-66
2022/07/09 04:54:46;;;;;;;;;9.00;9.00;;;;;21.92;48.65;102324.25;5013482;28;45480;-66
2022/07/09 04:57:12;;;;;;;;;9.00;9.00;;;;;21.92;48.45;102323.38;5013330;28;45319;-67
2022/07/09 04:59:37;;;;;;;;;10.67;8.00;;;;;21.90;48.67;102326.06;5013359;28;45392;-64
2022/07/09 05:02:03;;;;;;;;;10.33;7.33;;;;;21.90;48.95;102323.34;5013039;28;46205;-65
2022/07/09 05:04:28;;;;;;;;;6.67;6.67;;;;;21.92;48.48;102317.91;5006646;28;45471;-66
2022/07/09 05:06:53;;;;;;;;;8.67;8.67;;;;;21.93;48.73;102317.94;5014577;28;45582;-68
2022/07/09 05:09:19;;;;;;;;;9.33;9.33;;;;;21.94;48.80;102313.38;5017236;28;45412;-65
2022/07/09 05:11:44;;;;;;;;;8.67;8.67;;;;;21.90;49.05;102326.06;5016426;28;45345;-64
2022/07/09 05:14:09;;;;;;;;;11.00;10.33;;;;;21.90;48.86;102321.53;5016283;28;45515;-65
2022/07/09 05:16:35;;;;;;;;;10.00;9.33;;;;;21.86;49.13;102322.44;5016614;28;45904;-67
2022/07/09 05:19:00;;;;;;;;;12.00;8.00;;;;;21.85;48.79;102309.72;5016778;28;45427;-67
2022/07/09 05:21:26;;;;;;;;;12.33;11.00;;;;;21.93;48.94;102320.66;5016210;28;49951;-65
2022/07/09 05:23:51;;;;;;;;;8.33;8.33;;;;;21.71;48.98;102284.25;5016323;28;45454;-65
2022/07/09 05:26:16;;;;;;;;;13.33;11.00;;;;;21.96;48.97;102320.66;5015954;28;45598;-66
2022/07/09 05:28:42;;;;;;;;;14.67;11.33;;;;;21.88;49.19;102314.28;5016707;28;45403;-69
2022/07/09 05:31:07;;;;;;;;;9.33;9.33;;;;;21.93;49.32;102320.66;5015648;28;46240;-65
2022/07/09 05:33:32;;;;;;;;;10.67;9.67;;;;;21.89;49.09;102321.53;5016135;28;45687;-66
2022/07/09 05:35:58;;;;;;;;;11.00;7.67;;;;;21.80;49.19;102319.69;5016086;28;45437;-63
2022/07/09 05:38:23;;;;;;;;;12.33;11.00;;;;;21.89;48.98;102326.97;5016154;28;45462;-62
2022/07/09 05:40:48;;;;;;;;;8.00;8.00;;;;;21.74;49.22;102297.88;5016319;28;45646;-63
2022/07/09 05:43:14;;;;;;;;;32.50;27.50;;;;;21.85;49.45;102315.16;5015686;28;45458;-67
2022/07/09 05:45:39;;;;;;;;;12.33;9.33;;;;;21.85;49.09;102309.72;5016175;28;45429;-69
2022/07/09 05:48:04;;;;;;;;;10.67;9.33;;;;;21.92;48.74;102321.53;5016004;28;45656;-68
2022/07/09 05:50:30;;;;;;;;;15.00;15.00;;;;;21.92;49.00;102317.91;5011369;28;47881;-66
2022/07/09 05:52:55;;;;;;;;;14.67;12.33;;;;;21.97;48.83;102318.84;5015444;28;45293;-64
2022/07/09 05:55:20;;;;;;;;;12.33;12.33;;;;;21.96;48.77;102317.94;5015629;28;45539;-66
2022/07/09 05:57:46;;;;;;;;;11.00;8.67;;;;;21.97;48.81;102310.69;5016014;28;45574;-68
2022/07/09 06:00:12;;;;;;;;;13.00;11.50;;;;;21.98;48.56;102318.84;5015519;28;46107;-63
2022/07/09 06:02:37;;;;;;;;;12.33;9.33;;;;;22.06;48.76;102321.63;5015684;28;45636;-66
2022/07/09 06:05:03;;;;;;;;;13.00;8.67;;;;;21.93;48.61;102290.72;5015392;28;45339;-64
2022/07/09 06:07:28;;;;;;;;;11.00;11.00;;;;;22.13;48.55;102320.72;5015842;28;45585;-66
2022/07/09 06:09:53;;;;;;;;;11.33;9.33;;;;;22.02;48.63;102298.00;5013684;28;46231;-64
2022/07/09 06:12:19;;;;;;;;;11.33;11.33;;;;;22.19;48.80;102318.03;5015177;28;47925;-65
2022/07/09 06:14:44;;;;;;;;;11.67;11.67;;;;;22.15;48.73;102310.75;5015787;28;45304;-69
2022/07/09 06:17:09;;;;;;;;;8.33;8.00;;;;;22.27;48.31;102323.47;5013832;28;45432;-63
2022/07/09 06:19:36;;;;;;;;;12.00;10.67;;;;;22.30;48.25;102323.53;5014113;28;45373;-67
2022/07/09 06:22:02;;;;;;;;;13.00;12.00;;;;;22.31;48.40;102324.47;5015379;28;45347;-64
2022/07/09 06:24:29;;;;;;;;;10.33;8.33;;;;;22.12;48.50;102294.41;5015118;28;45407;-64
2022/07/09 06:26:54;;;;;;;;;10.67;8.67;;;;;22.26;48.32;102308.97;5015492;28;45589;-67
2022/07/09 06:29:20;;;;;;;;;10.67;10.67;;;;;22.34;48.36;102324.44;5014939;28;46126;-67
2022/07/09 06:31:46;;;;;;;;;21.00;14.00;;;;;22.29;48.66;102304.47;5015372;28;45655;-64
2022/07/09 06:34:11;;;;;;;;;10.67;10.67;;;;;22.37;48.49;102309.03;5015319;28;45509;-63
2022/07/09 06:36:37;;;;;;;;;11.33;10.00;;;;;22.48;48.26;102322.66;5015283;28;45464;-63
2022/07/09 06:41:47;;;;;;;;;10.00;10.00;;;;;22.53;47.98;102312.69;5015043;28;45409;-64
2022/07/09 06:44:13;;;;;;;;;28.50;21.75;;;;;22.48;48.29;102300.88;5014997;28;45538;-66
2022/07/09 06:46:38;;;;;;;;;10.75;10.75;;;;;22.67;47.98;102326.34;5015048;28;45626;-66
2022/07/09 06:49:04;;;;;;;;;13.00;12.67;;;;;22.68;47.79;102310.91;5015185;28;46287;-67
2022/07/09 06:51:29;;;;;;;;;11.75;11.50;;;;;22.77;47.41;102314.53;5014815;28;45541;-67
2022/07/09 06:53:55;;;;;;;;;17.00;13.00;;;;;22.77;47.67;102328.16;5014941;28;45698;-67
2022/07/09 06:56:21;;;;;;;;;12.00;11.67;;;;;22.72;47.53;102320.88;5014947;28;45370;-67
2022/07/09 06:58:46;;;;;;;;;11.67;9.67;;;;;22.87;47.62;102318.19;5014238;28;46182;-65
2022/07/09 07:01:11;;;;;;;;;13.00;10.00;;;;;22.91;47.34;102319.09;5014526;28;45370;-65
2022/07/09 07:03:37;;;;;;;;;14.67;11.67;;;;;22.78;47.14;102288.19;5014449;28;45534;-70
2022/07/09 07:06:02;;;;;;;;;11.67;11.67;;;;;22.89;47.09;102289.09;5014744;28;45620;-72
2022/07/09 07:08:27;;;;;;;;;10.67;9.00;;;;;23.11;47.14;102310.94;5014106;28;46149;-67
2022/07/09 07:10:53;;;;;;;;;14.00;13.25;;;;;22.98;46.75;102277.28;5014286;28;45569;-64
2022/07/09 07:13:18;;;;;;;;;23.50;23.50;;;;;23.19;46.67;102320.00;5014638;28;45997;-67
2022/07/09 07:15:44;;;;;;;;;12.33;10.00;;;;;23.05;46.44;102272.72;5014612;28;45594;-68
2022/07/09 07:18:10;;;;;;;;;20.50;15.25;;;;;23.28;46.44;102300.94;5014528;28;45918;-66
2022/07/09 07:20:35;;;;;;;;;11.67;11.67;;;;;23.37;46.33;102303.63;5035267;28;45562;-65
2022/07/09 07:23:01;;;;;;;;;12.00;10.00;;;;;23.36;46.00;102299.09;5014551;28;45599;-65
2022/07/09 07:25:26;;;;;;;;;9.33;9.00;;;;;23.54;45.63;102319.97;5015171;28;45636;-64
2022/07/09 07:27:51;;;;;;;;;20.50;19.75;;;;;23.41;46.02;102282.69;5014440;28;45448;-65
2022/07/09 07:30:17;;;;;;;;;13.33;8.33;;;;;23.64;45.42;102314.47;5014424;28;45333;-65
2022/07/09 07:32:42;;;;;;;;;13.00;9.33;;;;;23.60;45.38;102293.56;5014362;28;45474;-67
2022/07/09 07:35:08;;;;;;;;;13.00;10.00;;;;;23.78;45.33;102320.78;5014442;28;45367;-64
2022/07/09 07:37:33;;;;;;;;;14.00;13.33;;;;;23.87;45.25;102315.34;5014087;28;45426;-65
2022/07/09 07:39:59;;;;;;;;;10.00;8.67;;;;;23.97;45.27;102324.38;5013915;28;45450;-64
2022/07/09 07:42:24;;;;;;;;;14.00;14.00;;;;;24.01;44.71;102304.34;5014235;28;45514;-65
2022/07/09 07:44:49;;;;;;;;;14.00;12.00;;;;;24.15;44.86;102317.94;5014361;28;45466;-66
2022/07/09 07:47:15;;;;;;;;;8.67;8.33;;;;;24.24;44.18;102317.91;5028471;28;47630;-66
2022/07/09 07:49:40;;;;;;;;;11.67;9.00;;;;;24.16;44.08;102277.91;5013565;28;45384;-65
2022/07/09 07:52:06;;;;;;;;;13.00;11.33;;;;;24.48;43.34;102307.72;5016765;28;45938;-66
2022/07/09 07:54:31;;;;;;;;;9.00;9.00;;;;;24.75;43.20;102306.66;5014677;28;45403;-66
2022/07/09 07:56:57;;;;;;;;;9.33;8.00;;;;;24.81;42.44;102289.28;5013357;28;46372;-64
2022/07/09 07:59:24;;;;;;;;;12.67;11.67;;;;;24.52;42.67;102218.44;5013534;28;45477;-65
2022/07/09 08:01:52;;;;;;;;;9.00;7.67;;;;;24.85;42.12;102263.75;5013295;28;45479;-64
2022/07/09 08:04:17;;;;;;;;;20.50;20.00;;;;;25.11;41.69;102309.06;5013735;28;45608;-63
2022/07/09 08:06:43;;;;;;;;;10.67;7.33;;;;;25.06;42.02;102284.50;5011711;28;46116;-64
2022/07/09 08:09:08;;;;;;;;;7.67;6.00;;;;;25.22;41.53;102306.25;5013340;28;45245;-63
2022/07/09 08:11:34;;;;;;;;;7.00;7.00;;;;;24.99;41.40;102258.16;5013411;28;45360;-65
2022/07/09 08:14:00;;;;;;;;;7.33;7.33;;;;;25.22;41.11;102288.00;5018968;28;45420;-65
2022/07/09 08:16:25;;;;;;;;;13.00;11.00;;;;;25.40;41.14;102299.72;5013412;28;45486;-63
2022/07/09 08:18:50;;;;;;;;;11.67;11.67;;;;;25.48;41.08;102300.56;5013373;28;45641;-68
2022/07/09 08:21:16;;;;;;;;;7.00;7.00;;;;;25.54;40.34;102306.84;5013242;28;45326;-63
2022/07/09 08:23:56;;;;;;;;;16.33;13.00;;;;;25.62;40.41;102294.91;5013136;28;45343;-63
2022/07/09 08:26:24;;;;;;;;;5.00;5.00;;;;;25.28;39.62;102213.22;5012710;28;46236;-65
2022/07/09 08:28:50;;;;;;;;;5.00;5.00;;;;;25.78;39.89;102287.44;5013306;28;45441;-65
2022/07/09 08:31:17;;;;;;;;;6.33;6.33;;;;;25.85;39.08;102286.41;5015564;28;45430;-66
2022/07/09 08:33:42;;;;;;;;;14.33;14.33;;;;;25.50;38.67;102222.06;5014767;28;45724;-65
2022/07/09 08:36:08;;;;;;;;;6.33;4.00;;;;;25.73;38.83;102246.41;5017060;28;45693;-65
2022/07/09 08:38:33;;;;;;;;;12.00;10.33;;;;;25.98;39.14;102292.69;5012672;28;45362;-64
2022/07/09 08:41:00;;;;;;;;;26.33;19.00;;;;;26.05;38.92;102295.31;5013140;28;45557;-65
2022/07/09 08:43:29;;;;;;;;;9.67;8.67;;;;;25.97;38.80;102263.47;5016541;28;45495;-63
2022/07/09 08:45:56;;;;;;;;;9.00;7.00;;;;;25.98;38.46;102249.75;5015766;28;46995;-65
2022/07/09 08:48:21;;;;;;;;;9.67;8.33;;;;;25.90;37.92;102227.00;5017301;28;45505;-64
2022/07/09 08:50:48;;;;;;;;;6.67;5.67;;;;;26.23;37.36;102287.75;5016333;28;45494;-64
2022/07/09 08:53:16;;;;;;;;;5.00;3.33;;;;;26.27;37.46;102284.06;5018140;28;45590;-63
2022/07/09 08:55:42;;;;;;;;;7.67;6.00;;;;;26.33;37.86;102283.94;5020524;28;46186;-66
2022/07/09 08:58:11;;;;;;;;;4.33;4.00;;;;;25.92;37.25;102198.69;5016131;28;45446;-65
2022/07/09 09:00:36;;;;;;;;;8.33;7.33;;;;;26.28;37.70;102242.94;5015802;28;45262;-65
2022/07/09 09:03:02;;;;;;;;;4.33;3.00;;;;;26.48;37.50;102256.31;5016262;28;45469;-67
2022/07/09 09:05:27;;;;;;;;;9.00;7.00;;;;;26.57;36.97;102254.34;5023177;28;45649;-64
2022/07/09 09:07:52;;;;;;;;;8.00;6.00;;;;;26.73;36.75;102268.72;5016223;28;45419;-64
2022/07/09 09:10:22;;;;;;;;;5.33;5.33;;;;;26.81;36.82;102264.00;5018144;28;49895;-64
2022/07/09 09:12:48;;;;;;;;;50.75;41.50;;;;;26.68;36.98;102230.44;5011151;28;45394;-64
2022/07/09 09:15:18;;;;;;;;;7.00;7.00;;;;;26.91;36.48;102237.34;5016107;28;45667;-65
2022/07/09 09:17:44;;;;;;;;;5.00;5.00;;;;;27.12;36.18;102264.38;5013056;28;45423;-64
2022/07/09 09:20:16;;;;;;;;;8.67;7.00;;;;;27.19;36.09;102259.66;5015836;28;45411;-65
2022/07/09 09:22:47;;;;;;;;;6.00;4.33;;;;;27.25;35.47;102258.66;5018083;28;45568;-66
2022/07/09 09:25:20;;;;;;;;;5.33;3.00;;;;;27.20;35.58;102253.25;5015618;28;45988;-66
2022/07/09 09:27:58;;;;;;;;;9.00;6.00;;;;;27.25;35.66;102258.66;5015570;28;45527;-63
2022/07/09 09:30:25;;;;;;;;;6.67;6.00;;;;;27.30;35.80;102257.66;5015707;28;45398;-65
2022/07/09 09:33:01;;;;;;;;;9.00;9.00;;;;;27.37;36.18;102263.94;5016030;28;45386;-63
2022/07/09 09:35:33;;;;;;;;;7.00;7.00;;;;;26.86;35.65;102152.44;5015714;28;45531;-64
2022/07/09 09:37:58;;;;;;;;;5.00;5.00;;;;;27.49;35.51;102257.31;5015457;28;45473;-65
2022/07/09 09:40:24;;;;;;;;;6.67;6.00;;;;;27.48;35.50;102256.38;5015400;28;45371;-63
2022/07/09 09:42:50;;;;;;;;;10.00;8.00;;;;;27.09;35.29;102165.69;5016066;28;45561;-64
2022/07/09 09:45:16;;;;;;;;;6.33;4.67;;;;;27.74;35.70;102268.69;5015360;28;45436;-66
2022/07/09 09:47:50;;;;;;;;;5.33;4.33;;;;;27.80;35.15;102257.59;5017189;28;45413;-66
2022/07/09 09:50:23;;;;;;;;;5.00;4.33;;;;;27.77;35.25;102261.28;5015322;28;45463;-64
2022/07/09 09:52:50;;;;;;;;;4.00;4.00;;;;;27.78;35.38;102262.19;5014232;28;45511;-65
2022/07/09 09:55:18;;;;;;;;;6.00;6.00;;;;;27.33;35.59;102172.53;5014543;28;45356;-63
2022/07/09 09:57:44;;;;;;;;;9.00;7.67;;;;;27.80;35.36;102243.84;5014732;28;45427;-66
2022/07/09 10:00:11;;;;;;;;;10.33;9.67;;;;;27.87;35.50;102241.88;5014790;28;45559;-67
2022/07/09 10:02:42;;;;;;;;;4.33;4.33;;;;;27.92;35.09;102232.56;5020250;28;45521;-65
2022/07/09 10:05:07;;;;;;;;;10.00;7.67;;;;;28.04;35.70;102247.91;5014300;28;45583;-63
2022/07/09 10:07:33;;;;;;;;;7.67;6.33;;;;;28.11;35.29;102267.91;5013028;28;45434;-66
2022/07/09 10:09:58;;;;;;;;;2.33;2.33;;;;;27.93;35.62;102231.69;5015899;28;45430;-68
2022/07/09 10:12:28;;;;;;;;;6.33;6.33;;;;;28.06;35.32;102262.50;5015270;28;45519;-67
2022/07/09 10:14:53;;;;;;;;;9.33;8.00;;;;;28.08;35.31;102249.66;5015087;28;45787;-69
2022/07/09 10:17:19;;;;;;;;;5.00;4.67;;;;;28.08;35.16;102257.91;5014576;28;45206;-69
2022/07/09 10:20:11;;;;;;;;;6.00;6.00;;;;;27.71;35.74;102195.50;5018300;28;45428;-66
2022/07/09 10:22:40;;;;;;;;;6.00;5.67;;;;;28.07;35.54;102253.31;5014876;28;45304;-67
2022/07/09 10:25:10;;;;;;;;;5.33;5.00;;;;;27.91;35.64;102246.34;5016674;28;46470;-67
2022/07/09 10:27:48;;;;;;;;;4.67;4.67;;;;;27.44;36.17;102180.53;5014826;28;45400;-67
2022/07/09 10:30:26;;;;;;;;;6.00;4.00;;;;;27.48;36.13;102208.84;5009386;28;45440;-64
2022/07/09 10:33:05;;;;;;;;;9.00;5.33;;;;;27.60;36.40;102243.34;5013414;28;45579;-66
2022/07/09 10:35:38;;;;;;;;;7.33;7.33;;;;;27.13;36.52;102174.75;5019852;28;46173;-67
2022/07/09 10:38:03;;;;;;;;;7.67;7.67;;;;;27.41;36.38;102226.38;5014402;28;45300;-65
2022/07/09 10:40:38;;;;;;;;;7.33;6.33;;;;;27.41;35.48;102223.63;5014439;28;45392;-66
2022/07/09 10:43:03;;;;;;;;;5.00;5.00;;;;;27.50;35.33;102234.41;5014913;28;45327;-68
2022/07/09 10:45:39;;;;;;;;;4.00;4.00;;;;;27.49;35.00;102244.50;5014498;28;46208;-65
2022/07/09 10:48:07;;;;;;;;;4.33;3.67;;;;;27.44;35.76;102216.22;5016799;28;45288;-65
2022/07/09 10:50:38;;;;;;;;;6.00;6.00;;;;;27.50;35.47;102204.19;5014312;28;45577;-65
2022/07/09 10:53:04;;;;;;;;;7.67;7.33;;;;;27.61;35.72;102191.16;5014871;28;45376;-67
2022/07/09 10:55:30;;;;;;;;;12.00;12.00;;;;;27.98;35.24;102214.16;5014393;28;45415;-67
2022/07/09 10:57:55;;;;;;;;;6.00;6.00;;;;;27.97;35.50;102195.88;5009610;28;45450;-65
2022/07/09 11:00:25;;;;;;;;;5.00;4.00;;;;;28.24;34.87;102208.94;5012286;28;45421;-66
2022/07/09 11:02:51;;;;;;;;;10.33;6.00;;;;;28.36;34.68;102199.50;5019741;28;45441;-63
2022/07/09 11:05:16;;;;;;;;;7.00;6.00;;;;;28.46;33.92;102211.16;5018028;28;45514;-67
2022/07/09 11:07:41;;;;;;;;;19.00;18.00;;;;;28.55;34.55;102207.31;5013888;28;45472;-64
2022/07/09 11:10:07;;;;;;;;;8.33;8.00;;;;;28.60;34.33;102202.63;5014405;28;45465;-64
2022/07/09 11:12:32;;;;;;;;;5.00;5.00;;;;;28.63;34.04;102191.53;5014807;28;45398;-65
2022/07/09 11:14:58;;;;;;;;;7.67;6.33;;;;;28.10;33.94;102123.22;5014220;28;46560;-67
2022/07/09 11:17:23;;;;;;;;;7.67;7.67;;;;;28.63;34.11;102195.19;5014221;28;45328;-66